MDLR

La Romana International Airport

Airport
ICAO code
MDLR
IATA Code
LRM
Summary
ICAO Region
CARSAM
ICAO Territory
Location

La Romana, Dominican Republic

Serving
La Romana
Elevation
213 ft
Coordinates
18° 26' 54" N , 68° 54' 43" W
KCC
Aw
Airport WX
Tropical Revolving Storm
Metar
Observation
MDLR 182000Z 07008KT 9999 FEW022CB BKN025 32/24 Q1012 CB/E/NW
Station
La Romana International Airport
Date/Time
2022-08-18 20:00:00
Wind direction
70°
Wind speed
08 kts
Lowest cloud amount
few clouds
Temperature
32°C
Dew point
24°C
Humidity
62%
QNH
1012 hPa
Weather condition
n/a

International Airport located on the southeastern coast of the Dominican Republic, adjacent to the tourist town of La Romana and the resort of Casa de Campo.

Climatology

Tropical savannah climate (Köppen climate classification Aw)

Runways

Designator Length Width Surface Rops
11/29 2949 45 ASP Yes/Yes

Airport map

Aerial View

SKYbrary Partners:

Safety knowledge contributed by: